sensor_id;sensor_type;location;lat;lon;timestamp;temperature;humidity
57434;DHT22;43277;52.672;6.984;2022-10-16T00:01:24;13.30;99.90
57434;DHT22;43277;52.672;6.984;2022-10-16T00:03:50;13.40;99.90
57434;DHT22;43277;52.672;6.984;2022-10-16T00:06:19;13.40;99.90
57434;DHT22;43277;52.672;6.984;2022-10-16T00:08:45;13.50;99.90
57434;DHT22;43277;52.672;6.984;2022-10-16T00:11:20;13.50;99.90
57434;DHT22;43277;52.672;6.984;2022-10-16T00:13:47;13.50;99.90
57434;DHT22;43277;52.672;6.984;2022-10-16T00:16:13;13.60;99.90
57434;DHT22;43277;52.672;6.984;2022-10-16T00:18:39;13.70;99.90
57434;DHT22;43277;52.672;6.984;2022-10-16T00:21:07;13.70;99.90
57434;DHT22;43277;52.672;6.984;2022-10-16T00:23:34;13.60;99.90
57434;DHT22;43277;52.672;6.984;2022-10-16T00:26:02;13.60;99.90
57434;DHT22;43277;52.672;6.984;2022-10-16T00:28:28;13.70;99.90
57434;DHT22;43277;52.672;6.984;2022-10-16T00:30:54;13.70;99.90
57434;DHT22;43277;52.672;6.984;2022-10-16T00:33:20;13.60;99.90
57434;DHT22;43277;52.672;6.984;2022-10-16T00:35:46;13.60;99.90
57434;DHT22;43277;52.672;6.984;2022-10-16T00:38:11;13.70;99.90
57434;DHT22;43277;52.672;6.984;2022-10-16T00:40:37;13.60;99.90
57434;DHT22;43277;52.672;6.984;2022-10-16T00:43:04;13.60;99.90
57434;DHT22;43277;52.672;6.984;2022-10-16T00:45:34;13.70;99.90
57434;DHT22;43277;52.672;6.984;2022-10-16T00:48:00;13.70;99.90
57434;DHT22;43277;52.672;6.984;2022-10-16T00:50:30;13.70;99.90
57434;DHT22;43277;52.672;6.984;2022-10-16T00:52:58;13.70;99.90
57434;DHT22;43277;52.672;6.984;2022-10-16T00:55:24;13.70;99.90
57434;DHT22;43277;52.672;6.984;2022-10-16T00:57:51;13.70;99.90
57434;DHT22;43277;52.672;6.984;2022-10-16T01:00:22;13.70;99.90
57434;DHT22;43277;52.672;6.984;2022-10-16T01:02:55;13.60;99.90
57434;DHT22;43277;52.672;6.984;2022-10-16T01:05:22;13.60;99.90
57434;DHT22;43277;52.672;6.984;2022-10-16T01:10:40;13.60;99.90
57434;DHT22;43277;52.672;6.984;2022-10-16T01:13:12;13.50;99.90
57434;DHT22;43277;52.672;6.984;2022-10-16T01:15:46;13.50;99.90
57434;DHT22;43277;52.672;6.984;2022-10-16T01:20:53;13.50;99.90
57434;DHT22;43277;52.672;6.984;2022-10-16T01:23:33;13.40;99.90
57434;DHT22;43277;52.672;6.984;2022-10-16T01:26:24;13.40;99.90
57434;DHT22;43277;52.672;6.984;2022-10-16T01:29:00;13.50;99.90
57434;DHT22;43277;52.672;6.984;2022-10-16T01:31:31;13.50;99.90
57434;DHT22;43277;52.672;6.984;2022-10-16T01:34:12;13.50;99.90
57434;DHT22;43277;52.672;6.984;2022-10-16T01:36:45;13.50;99.90
57434;DHT22;43277;52.672;6.984;2022-10-16T01:39:13;13.40;99.90
57434;DHT22;43277;52.672;6.984;2022-10-16T01:42:11;13.40;99.90
57434;DHT22;43277;52.672;6.984;2022-10-16T01:44:38;13.50;99.90
57434;DHT22;43277;52.672;6.984;2022-10-16T01:47:06;13.50;99.90
57434;DHT22;43277;52.672;6.984;2022-10-16T01:49:36;13.50;99.90
57434;DHT22;43277;52.672;6.984;2022-10-16T01:52:06;13.50;99.90
57434;DHT22;43277;52.672;6.984;2022-10-16T01:54:35;13.40;99.90
57434;DHT22;43277;52.672;6.984;2022-10-16T01:57:03;13.50;99.90
57434;DHT22;43277;52.672;6.984;2022-10-16T01:59:32;13.50;99.90
57434;DHT22;43277;52.672;6.984;2022-10-16T02:02:00;13.40;99.90
57434;DHT22;43277;52.672;6.984;2022-10-16T02:04:34;13.40;99.90
57434;DHT22;43277;52.672;6.984;2022-10-16T02:07:02;13.40;99.90
57434;DHT22;43277;52.672;6.984;2022-10-16T02:09:27;13.40;99.90
57434;DHT22;43277;52.672;6.984;2022-10-16T02:11:57;13.40;99.90
57434;DHT22;43277;52.672;6.984;2022-10-16T02:14:25;13.40;99.90
57434;DHT22;43277;52.672;6.984;2022-10-16T02:16:51;13.40;99.90
57434;DHT22;43277;52.672;6.984;2022-10-16T02:19:18;13.30;99.90
57434;DHT22;43277;52.672;6.984;2022-10-16T02:21:58;13.30;99.90
57434;DHT22;43277;52.672;6.984;2022-10-16T02:27:15;13.30;99.90
57434;DHT22;43277;52.672;6.984;2022-10-16T02:29:47;13.20;99.90
57434;DHT22;43277;52.672;6.984;2022-10-16T02:32:21;13.30;99.90
57434;DHT22;43277;52.672;6.984;2022-10-16T02:34:49;13.20;99.90
57434;DHT22;43277;52.672;6.984;2022-10-16T02:37:16;13.30;99.90
57434;DHT22;43277;52.672;6.984;2022-10-16T02:39:43;13.20;99.90
57434;DHT22;43277;52.672;6.984;2022-10-16T02:42:13;13.30;99.90
57434;DHT22;43277;52.672;6.984;2022-10-16T02:44:38;13.20;99.90
57434;DHT22;43277;52.672;6.984;2022-10-16T02:47:04;13.20;99.90
57434;DHT22;43277;52.672;6.984;2022-10-16T02:49:30;13.30;99.90
57434;DHT22;43277;52.672;6.984;2022-10-16T02:51:55;13.30;99.90
57434;DHT22;43277;52.672;6.984;2022-10-16T02:54:21;13.40;99.90
57434;DHT22;43277;52.672;6.984;2022-10-16T02:56:46;13.30;99.90
57434;DHT22;43277;52.672;6.984;2022-10-16T02:59:12;13.40;99.90
57434;DHT22;43277;52.672;6.984;2022-10-16T03:01:37;13.40;99.90
57434;DHT22;43277;52.672;6.984;2022-10-16T03:04:03;13.40;99.90
57434;DHT22;43277;52.672;6.984;2022-10-16T03:06:29;13.40;99.90
57434;DHT22;43277;52.672;6.984;2022-10-16T03:08:54;13.50;99.90
57434;DHT22;43277;52.672;6.984;2022-10-16T03:11:20;13.40;99.90
57434;DHT22;43277;52.672;6.984;2022-10-16T03:13:46;13.50;99.90
57434;DHT22;43277;52.672;6.984;2022-10-16T03:16:11;13.50;99.90
57434;DHT22;43277;52.672;6.984;2022-10-16T03:18:37;13.50;99.90
57434;DHT22;43277;52.672;6.984;2022-10-16T03:21:02;13.50;99.90
57434;DHT22;43277;52.672;6.984;2022-10-16T03:23:28;13.60;99.90
57434;DHT22;43277;52.672;6.984;2022-10-16T03:25:54;13.60;99.90
57434;DHT22;43277;52.672;6.984;2022-10-16T03:28:20;13.60;99.90
57434;DHT22;43277;52.672;6.984;2022-10-16T03:30:45;13.70;99.90
57434;DHT22;43277;52.672;6.984;2022-10-16T03:33:11;13.70;99.90
57434;DHT22;43277;52.672;6.984;2022-10-16T03:35:37;13.70;99.90
57434;DHT22;43277;52.672;6.984;2022-10-16T03:38:03;13.70;99.90
57434;DHT22;43277;52.672;6.984;2022-10-16T03:40:29;13.80;99.90
57434;DHT22;43277;52.672;6.984;2022-10-16T03:42:55;13.80;99.90
57434;DHT22;43277;52.672;6.984;2022-10-16T03:45:23;13.80;99.90
57434;DHT22;43277;52.672;6.984;2022-10-16T03:47:48;13.90;99.90
57434;DHT22;43277;52.672;6.984;2022-10-16T03:50:14;13.90;99.90
57434;DHT22;43277;52.672;6.984;2022-10-16T03:52:40;13.80;99.90
57434;DHT22;43277;52.672;6.984;2022-10-16T03:55:06;13.90;99.90
57434;DHT22;43277;52.672;6.984;2022-10-16T03:57:32;13.80;99.90
57434;DHT22;43277;52.672;6.984;2022-10-16T03:59:57;13.80;99.90
57434;DHT22;43277;52.672;6.984;2022-10-16T04:02:23;13.70;99.90
57434;DHT22;43277;52.672;6.984;2022-10-16T04:04:49;13.80;99.90
57434;DHT22;43277;52.672;6.984;2022-10-16T04:07:14;13.80;99.90
57434;DHT22;43277;52.672;6.984;2022-10-16T04:09:40;13.70;99.90
57434;DHT22;43277;52.672;6.984;2022-10-16T04:12:06;13.70;99.90
57434;DHT22;43277;52.672;6.984;2022-10-16T04:14:31;13.70;99.90
57434;DHT22;43277;52.672;6.984;2022-10-16T04:16:57;13.70;99.90
57434;DHT22;43277;52.672;6.984;2022-10-16T04:19:22;13.70;99.90
57434;DHT22;43277;52.672;6.984;2022-10-16T04:21:48;13.70;99.90
57434;DHT22;43277;52.672;6.984;2022-10-16T04:24:13;13.60;99.90
57434;DHT22;43277;52.672;6.984;2022-10-16T04:26:39;13.60;99.90
57434;DHT22;43277;52.672;6.984;2022-10-16T04:29:05;13.60;99.90
57434;DHT22;43277;52.672;6.984;2022-10-16T04:31:31;13.70;99.90
57434;DHT22;43277;52.672;6.984;2022-10-16T04:33:57;13.60;99.90
57434;DHT22;43277;52.672;6.984;2022-10-16T04:36:22;13.60;99.90
57434;DHT22;43277;52.672;6.984;2022-10-16T04:38:48;13.60;99.90
57434;DHT22;43277;52.672;6.984;2022-10-16T04:41:13;13.60;99.90
57434;DHT22;43277;52.672;6.984;2022-10-16T04:43:39;13.60;99.90
57434;DHT22;43277;52.672;6.984;2022-10-16T04:46:04;13.60;99.90
57434;DHT22;43277;52.672;6.984;2022-10-16T04:48:31;13.70;99.90
57434;DHT22;43277;52.672;6.984;2022-10-16T04:50:56;13.70;99.90
57434;DHT22;43277;52.672;6.984;2022-10-16T04:53:22;13.60;99.90
57434;DHT22;43277;52.672;6.984;2022-10-16T04:55:48;13.60;99.90
57434;DHT22;43277;52.672;6.984;2022-10-16T04:58:14;13.60;99.90
57434;DHT22;43277;52.672;6.984;2022-10-16T05:00:39;13.60;99.90
57434;DHT22;43277;52.672;6.984;2022-10-16T05:03:05;13.50;99.90
57434;DHT22;43277;52.672;6.984;2022-10-16T05:05:34;13.60;99.90
57434;DHT22;43277;52.672;6.984;2022-10-16T05:08:00;13.60;99.90
57434;DHT22;43277;52.672;6.984;2022-10-16T05:10:26;13.80;99.90
57434;DHT22;43277;52.672;6.984;2022-10-16T05:12:51;13.70;99.90
57434;DHT22;43277;52.672;6.984;2022-10-16T05:15:17;13.60;99.90
57434;DHT22;43277;52.672;6.984;2022-10-16T05:17:44;13.60;99.90
57434;DHT22;43277;52.672;6.984;2022-10-16T05:20:10;13.60;99.90
57434;DHT22;43277;52.672;6.984;2022-10-16T05:22:35;13.50;99.90
57434;DHT22;43277;52.672;6.984;2022-10-16T05:25:01;13.60;99.90
57434;DHT22;43277;52.672;6.984;2022-10-16T05:27:26;13.60;99.90
57434;DHT22;43277;52.672;6.984;2022-10-16T05:29:52;13.50;99.90
57434;DHT22;43277;52.672;6.984;2022-10-16T05:32:18;13.50;99.90
57434;DHT22;43277;52.672;6.984;2022-10-16T05:34:44;13.50;99.90
57434;DHT22;43277;52.672;6.984;2022-10-16T05:37:11;13.50;99.90
57434;DHT22;43277;52.672;6.984;2022-10-16T05:39:37;13.50;99.90
57434;DHT22;43277;52.672;6.984;2022-10-16T05:42:04;13.50;99.90
57434;DHT22;43277;52.672;6.984;2022-10-16T05:44:29;13.40;99.90
57434;DHT22;43277;52.672;6.984;2022-10-16T05:46:55;13.40;99.90
57434;DHT22;43277;52.672;6.984;2022-10-16T05:49:20;13.40;99.90
57434;DHT22;43277;52.672;6.984;2022-10-16T05:51:46;13.50;99.90
57434;DHT22;43277;52.672;6.984;2022-10-16T05:54:12;13.50;99.90
57434;DHT22;43277;52.672;6.984;2022-10-16T05:56:37;13.40;99.90
57434;DHT22;43277;52.672;6.984;2022-10-16T05:59:04;13.40;99.90
57434;DHT22;43277;52.672;6.984;2022-10-16T06:01:29;13.30;99.90
57434;DHT22;43277;52.672;6.984;2022-10-16T06:03:56;13.40;99.90
57434;DHT22;43277;52.672;6.984;2022-10-16T06:06:24;13.40;99.90
57434;DHT22;43277;52.672;6.984;2022-10-16T06:08:51;13.30;99.90
57434;DHT22;43277;52.672;6.984;2022-10-16T06:11:25;13.40;99.90
57434;DHT22;43277;52.672;6.984;2022-10-16T06:13:53;13.30;99.90
57434;DHT22;43277;52.672;6.984;2022-10-16T06:16:19;13.40;99.90
57434;DHT22;43277;52.672;6.984;2022-10-16T06:18:45;13.30;99.90
57434;DHT22;43277;52.672;6.984;2022-10-16T06:21:15;13.50;99.90
57434;DHT22;43277;52.672;6.984;2022-10-16T06:23:41;13.40;99.90
57434;DHT22;43277;52.672;6.984;2022-10-16T06:26:12;13.30;99.90
57434;DHT22;43277;52.672;6.984;2022-10-16T06:28:38;13.30;99.90
57434;DHT22;43277;52.672;6.984;2022-10-16T06:31:05;13.30;99.90
57434;DHT22;43277;52.672;6.984;2022-10-16T06:33:30;13.20;99.90
57434;DHT22;43277;52.672;6.984;2022-10-16T06:36:04;13.30;99.90
57434;DHT22;43277;52.672;6.984;2022-10-16T06:38:30;13.30;99.90
57434;DHT22;43277;52.672;6.984;2022-10-16T06:40:56;13.50;99.90
57434;DHT22;43277;52.672;6.984;2022-10-16T06:43:22;13.50;99.90
57434;DHT22;43277;52.672;6.984;2022-10-16T06:45:55;13.40;99.90
57434;DHT22;43277;52.672;6.984;2022-10-16T06:48:21;13.50;99.90
57434;DHT22;43277;52.672;6.984;2022-10-16T06:51:00;13.40;99.90
57434;DHT22;43277;52.672;6.984;2022-10-16T06:53:28;13.50;99.90
57434;DHT22;43277;52.672;6.984;2022-10-16T06:55:54;13.40;99.90
57434;DHT22;43277;52.672;6.984;2022-10-16T06:58:20;13.60;99.90
57434;DHT22;43277;52.672;6.984;2022-10-16T07:00:46;13.60;99.90
57434;DHT22;43277;52.672;6.984;2022-10-16T07:03:12;13.60;99.90
57434;DHT22;43277;52.672;6.984;2022-10-16T07:05:42;13.50;99.90
57434;DHT22;43277;52.672;6.984;2022-10-16T07:08:08;13.50;99.90
57434;DHT22;43277;52.672;6.984;2022-10-16T07:10:34;13.40;99.90
57434;DHT22;43277;52.672;6.984;2022-10-16T07:13:00;13.60;99.90
57434;DHT22;43277;52.672;6.984;2022-10-16T07:15:25;13.50;99.90
57434;DHT22;43277;52.672;6.984;2022-10-16T07:17:51;13.50;99.90
57434;DHT22;43277;52.672;6.984;2022-10-16T07:20:17;13.50;99.90
57434;DHT22;43277;52.672;6.984;2022-10-16T07:22:42;13.50;99.90
57434;DHT22;43277;52.672;6.984;2022-10-16T07:25:08;13.60;99.90
57434;DHT22;43277;52.672;6.984;2022-10-16T07:27:34;13.60;99.90
57434;DHT22;43277;52.672;6.984;2022-10-16T07:30:00;13.70;99.90
57434;DHT22;43277;52.672;6.984;2022-10-16T07:32:26;13.90;99.90
57434;DHT22;43277;52.672;6.984;2022-10-16T07:34:52;13.90;99.90
57434;DHT22;43277;52.672;6.984;2022-10-16T07:37:18;14.00;99.90
57434;DHT22;43277;52.672;6.984;2022-10-16T07:39:43;14.20;99.90
57434;DHT22;43277;52.672;6.984;2022-10-16T07:42:09;14.00;99.90
57434;DHT22;43277;52.672;6.984;2022-10-16T07:44:34;14.00;99.90
57434;DHT22;43277;52.672;6.984;2022-10-16T07:47:00;14.10;99.90
57434;DHT22;43277;52.672;6.984;2022-10-16T07:49:26;14.10;99.90
57434;DHT22;43277;52.672;6.984;2022-10-16T07:51:51;14.10;99.90
57434;DHT22;43277;52.672;6.984;2022-10-16T07:54:17;14.20;99.90
57434;DHT22;43277;52.672;6.984;2022-10-16T07:56:42;14.10;99.90
57434;DHT22;43277;52.672;6.984;2022-10-16T07:59:08;14.20;99.90
57434;DHT22;43277;52.672;6.984;2022-10-16T08:01:34;14.20;99.90
57434;DHT22;43277;52.672;6.984;2022-10-16T08:03:59;14.30;99.90
57434;DHT22;43277;52.672;6.984;2022-10-16T08:06:25;14.50;99.90
57434;DHT22;43277;52.672;6.984;2022-10-16T08:08:51;14.40;99.90
57434;DHT22;43277;52.672;6.984;2022-10-16T08:11:16;14.50;99.90
57434;DHT22;43277;52.672;6.984;2022-10-16T08:13:42;14.40;99.90
57434;DHT22;43277;52.672;6.984;2022-10-16T08:16:08;14.40;99.90
57434;DHT22;43277;52.672;6.984;2022-10-16T08:18:35;14.50;99.90
57434;DHT22;43277;52.672;6.984;2022-10-16T08:21:02;14.60;99.90
57434;DHT22;43277;52.672;6.984;2022-10-16T08:23:28;14.60;99.90
57434;DHT22;43277;52.672;6.984;2022-10-16T08:25:54;14.70;99.90
57434;DHT22;43277;52.672;6.984;2022-10-16T08:28:20;14.60;99.90
57434;DHT22;43277;52.672;6.984;2022-10-16T08:30:46;14.60;99.90
57434;DHT22;43277;52.672;6.984;2022-10-16T08:33:12;14.60;99.90
57434;DHT22;43277;52.672;6.984;2022-10-16T08:35:37;14.60;99.90
57434;DHT22;43277;52.672;6.984;2022-10-16T08:38:06;14.90;99.90
57434;DHT22;43277;52.672;6.984;2022-10-16T08:40:33;14.90;99.90
57434;DHT22;43277;52.672;6.984;2022-10-16T08:45:57;15.00;99.90
57434;DHT22;43277;52.672;6.984;2022-10-16T08:48:52;15.00;99.90
57434;DHT22;43277;52.672;6.984;2022-10-16T08:51:30;15.00;99.90
57434;DHT22;43277;52.672;6.984;2022-10-16T08:57:07;15.10;99.90
57434;DHT22;43277;52.672;6.984;2022-10-16T08:59:34;15.00;99.90
57434;DHT22;43277;52.672;6.984;2022-10-16T09:02:00;15.20;99.90
57434;DHT22;43277;52.672;6.984;2022-10-16T09:07:11;15.40;99.90
57434;DHT22;43277;52.672;6.984;2022-10-16T09:12:28;15.50;99.90
57434;DHT22;43277;52.672;6.984;2022-10-16T09:18:09;15.70;99.90
57434;DHT22;43277;52.672;6.984;2022-10-16T09:20:49;15.80;99.90
57434;DHT22;43277;52.672;6.984;2022-10-16T09:23:16;15.80;99.90
57434;DHT22;43277;52.672;6.984;2022-10-16T09:25:47;15.90;99.90
57434;DHT22;43277;52.672;6.984;2022-10-16T09:28:14;15.90;99.90
57434;DHT22;43277;52.672;6.984;2022-10-16T09:30:40;16.00;99.90
57434;DHT22;43277;52.672;6.984;2022-10-16T09:33:06;16.00;99.90
57434;DHT22;43277;52.672;6.984;2022-10-16T09:35:40;16.10;99.90
57434;DHT22;43277;52.672;6.984;2022-10-16T09:38:07;16.30;99.90
57434;DHT22;43277;52.672;6.984;2022-10-16T09:40:38;16.50;99.90
57434;DHT22;43277;52.672;6.984;2022-10-16T09:46:05;16.60;99.90
57434;DHT22;43277;52.672;6.984;2022-10-16T09:48:37;16.80;99.90
57434;DHT22;43277;52.672;6.984;2022-10-16T09:51:06;16.80;99.90
57434;DHT22;43277;52.672;6.984;2022-10-16T09:53:43;16.90;99.90
57434;DHT22;43277;52.672;6.984;2022-10-16T09:56:11;17.10;99.90
57434;DHT22;43277;52.672;6.984;2022-10-16T09:58:42;17.10;99.90
57434;DHT22;43277;52.672;6.984;2022-10-16T10:01:14;17.10;99.90
57434;DHT22;43277;52.672;6.984;2022-10-16T10:03:42;17.20;99.90
57434;DHT22;43277;52.672;6.984;2022-10-16T10:06:25;17.30;99.90
57434;DHT22;43277;52.672;6.984;2022-10-16T10:08:58;17.30;99.90
57434;DHT22;43277;52.672;6.984;2022-10-16T10:19:39;17.50;99.90
57434;DHT22;43277;52.672;6.984;2022-10-16T10:28:21;17.80;99.90
57434;DHT22;43277;52.672;6.984;2022-10-16T10:30:56;18.10;99.90
57434;DHT22;43277;52.672;6.984;2022-10-16T10:36:24;18.30;99.90
57434;DHT22;43277;52.672;6.984;2022-10-16T10:39:34;18.40;99.90
57434;DHT22;43277;52.672;6.984;2022-10-16T10:44:37;18.80;99.90
57434;DHT22;43277;52.672;6.984;2022-10-16T10:58:36;18.70;99.70
57434;DHT22;43277;52.672;6.984;2022-10-16T11:01:14;18.80;99.70
57434;DHT22;43277;52.672;6.984;2022-10-16T11:04:23;18.80;99.70
57434;DHT22;43277;52.672;6.984;2022-10-16T11:06:56;19.10;97.70
57434;DHT22;43277;52.672;6.984;2022-10-16T11:09:28;18.90;97.40
57434;DHT22;43277;52.672;6.984;2022-10-16T11:12:05;19.00;97.40
57434;DHT22;43277;52.672;6.984;2022-10-16T11:14:46;18.90;98.00
57434;DHT22;43277;52.672;6.984;2022-10-16T11:17:23;18.90;97.50
57434;DHT22;43277;52.672;6.984;2022-10-16T11:19:53;18.70;98.20
57434;DHT22;43277;52.672;6.984;2022-10-16T11:28:01;18.50;98.10
57434;DHT22;43277;52.672;6.984;2022-10-16T11:30:34;18.40;99.40
57434;DHT22;43277;52.672;6.984;2022-10-16T11:41:51;18.40;98.30
57434;DHT22;43277;52.672;6.984;2022-10-16T11:44:51;18.20;98.80
57434;DHT22;43277;52.672;6.984;2022-10-16T11:47:45;18.10;99.10
57434;DHT22;43277;52.672;6.984;2022-10-16T11:52:57;18.00;99.90
57434;DHT22;43277;52.672;6.984;2022-10-16T11:58:05;17.90;98.00
57434;DHT22;43277;52.672;6.984;2022-10-16T12:00:43;17.80;98.60
57434;DHT22;43277;52.672;6.984;2022-10-16T12:08:39;17.60;99.40
57434;DHT22;43277;52.672;6.984;2022-10-16T12:17:38;17.80;99.10
57434;DHT22;43277;52.672;6.984;2022-10-16T12:19:32;17.90;99.80
57434;DHT22;43277;52.672;6.984;2022-10-16T12:22:02;18.10;98.70
57434;DHT22;43277;52.672;6.984;2022-10-16T12:24:37;18.30;97.90
57434;DHT22;43277;52.672;6.984;2022-10-16T12:27:16;18.40;96.90
57434;DHT22;43277;52.672;6.984;2022-10-16T12:29:45;18.40;96.70
57434;DHT22;43277;52.672;6.984;2022-10-16T12:32:32;18.40;96.60
57434;DHT22;43277;52.672;6.984;2022-10-16T12:35:00;18.40;96.80
57434;DHT22;43277;52.672;6.984;2022-10-16T12:37:31;18.40;97.00
57434;DHT22;43277;52.672;6.984;2022-10-16T12:39:57;18.30;97.50
57434;DHT22;43277;52.672;6.984;2022-10-16T12:44:53;18.20;98.20
57434;DHT22;43277;52.672;6.984;2022-10-16T12:47:21;18.00;98.40
57434;DHT22;43277;52.672;6.984;2022-10-16T12:49:53;17.90;98.80
57434;DHT22;43277;52.672;6.984;2022-10-16T12:52:36;17.80;99.50
57434;DHT22;43277;52.672;6.984;2022-10-16T12:55:03;17.70;99.70
57434;DHT22;43277;52.672;6.984;2022-10-16T13:05:50;18.00;97.90
57434;DHT22;43277;52.672;6.984;2022-10-16T13:08:54;18.00;97.00
57434;DHT22;43277;52.672;6.984;2022-10-16T13:19:46;18.30;96.10
57434;DHT22;43277;52.672;6.984;2022-10-16T13:24:55;18.50;95.40
57434;DHT22;43277;52.672;6.984;2022-10-16T13:32:45;18.70;93.70
57434;DHT22;43277;52.672;6.984;2022-10-16T13:35:23;18.80;93.40
57434;DHT22;43277;52.672;6.984;2022-10-16T13:38:02;18.80;93.20
57434;DHT22;43277;52.672;6.984;2022-10-16T13:40:28;18.90;93.10
57434;DHT22;43277;52.672;6.984;2022-10-16T13:42:53;19.10;93.00
57434;DHT22;43277;52.672;6.984;2022-10-16T13:45:24;19.00;93.60
57434;DHT22;43277;52.672;6.984;2022-10-16T13:48:03;19.00;94.20
57434;DHT22;43277;52.672;6.984;2022-10-16T13:50:30;19.10;93.80
57434;DHT22;43277;52.672;6.984;2022-10-16T13:53:13;19.20;93.80
57434;DHT22;43277;52.672;6.984;2022-10-16T13:55:39;19.10;93.60
57434;DHT22;43277;52.672;6.984;2022-10-16T13:58:16;19.10;93.00
57434;DHT22;43277;52.672;6.984;2022-10-16T14:00:54;19.20;93.90
57434;DHT22;43277;52.672;6.984;2022-10-16T14:03:20;19.40;93.30
57434;DHT22;43277;52.672;6.984;2022-10-16T14:06:01;19.60;93.60
57434;DHT22;43277;52.672;6.984;2022-10-16T14:08:29;20.00;92.40
57434;DHT22;43277;52.672;6.984;2022-10-16T14:10:57;20.80;91.70
57434;DHT22;43277;52.672;6.984;2022-10-16T14:13:44;21.50;89.70
57434;DHT22;43277;52.672;6.984;2022-10-16T14:16:18;22.40;84.90
57434;DHT22;43277;52.672;6.984;2022-10-16T14:18:50;22.80;79.00
57434;DHT22;43277;52.672;6.984;2022-10-16T14:21:18;23.20;77.70
57434;DHT22;43277;52.672;6.984;2022-10-16T14:23:43;23.50;72.80
57434;DHT22;43277;52.672;6.984;2022-10-16T14:28:36;23.70;71.10
57434;DHT22;43277;52.672;6.984;2022-10-16T14:31:24;23.90;68.30
57434;DHT22;43277;52.672;6.984;2022-10-16T14:33:50;23.60;68.70
57434;DHT22;43277;52.672;6.984;2022-10-16T14:36:17;23.10;71.10
57434;DHT22;43277;52.672;6.984;2022-10-16T14:41:26;22.50;69.90
57434;DHT22;43277;52.672;6.984;2022-10-16T14:43:54;22.30;69.80
57434;DHT22;43277;52.672;6.984;2022-10-16T14:46:37;22.00;72.10
57434;DHT22;43277;52.672;6.984;2022-10-16T14:51:36;21.30;76.50
57434;DHT22;43277;52.672;6.984;2022-10-16T14:54:03;20.90;80.40
57434;DHT22;43277;52.672;6.984;2022-10-16T14:56:42;20.80;80.10
57434;DHT22;43277;52.672;6.984;2022-10-16T14:59:14;20.40;82.40
57434;DHT22;43277;52.672;6.984;2022-10-16T15:01:43;19.90;86.20
57434;DHT22;43277;52.672;6.984;2022-10-16T15:04:10;19.80;88.20
57434;DHT22;43277;52.672;6.984;2022-10-16T15:06:37;19.60;89.10
57434;DHT22;43277;52.672;6.984;2022-10-16T15:09:03;19.50;90.40
57434;DHT22;43277;52.672;6.984;2022-10-16T15:11:29;19.40;91.00
57434;DHT22;43277;52.672;6.984;2022-10-16T15:13:56;19.10;92.80
57434;DHT22;43277;52.672;6.984;2022-10-16T15:16:22;19.00;92.60
57434;DHT22;43277;52.672;6.984;2022-10-16T15:18:47;19.00;92.50
57434;DHT22;43277;52.672;6.984;2022-10-16T15:21:32;18.80;93.10
57434;DHT22;43277;52.672;6.984;2022-10-16T15:23:59;18.70;93.90
57434;DHT22;43277;52.672;6.984;2022-10-16T15:26:26;18.60;94.60
57434;DHT22;43277;52.672;6.984;2022-10-16T15:28:53;18.50;95.00
57434;DHT22;43277;52.672;6.984;2022-10-16T15:31:19;18.50;94.90
57434;DHT22;43277;52.672;6.984;2022-10-16T15:33:45;18.40;96.00
57434;DHT22;43277;52.672;6.984;2022-10-16T15:36:16;18.20;96.90
57434;DHT22;43277;52.672;6.984;2022-10-16T15:38:42;18.20;96.80
57434;DHT22;43277;52.672;6.984;2022-10-16T15:41:08;18.10;96.90
57434;DHT22;43277;52.672;6.984;2022-10-16T15:43:33;18.00;97.20
57434;DHT22;43277;52.672;6.984;2022-10-16T15:46:02;17.90;97.50
57434;DHT22;43277;52.672;6.984;2022-10-16T15:48:29;17.90;97.80
57434;DHT22;43277;52.672;6.984;2022-10-16T15:50:55;17.80;98.50
57434;DHT22;43277;52.672;6.984;2022-10-16T15:53:21;17.70;98.80
57434;DHT22;43277;52.672;6.984;2022-10-16T15:55:46;17.60;98.90
57434;DHT22;43277;52.672;6.984;2022-10-16T15:58:12;17.50;99.10
57434;DHT22;43277;52.672;6.984;2022-10-16T16:00:38;17.40;99.50
57434;DHT22;43277;52.672;6.984;2022-10-16T16:03:04;17.20;99.90
57434;DHT22;43277;52.672;6.984;2022-10-16T16:05:29;17.20;99.90
57434;DHT22;43277;52.672;6.984;2022-10-16T16:07:56;17.10;99.90
57434;DHT22;43277;52.672;6.984;2022-10-16T16:10:22;17.00;99.90
57434;DHT22;43277;52.672;6.984;2022-10-16T16:12:48;16.90;99.90
57434;DHT22;43277;52.672;6.984;2022-10-16T16:15:21;16.70;99.90
57434;DHT22;43277;52.672;6.984;2022-10-16T16:17:47;16.60;99.90
57434;DHT22;43277;52.672;6.984;2022-10-16T16:20:13;16.50;99.90
57434;DHT22;43277;52.672;6.984;2022-10-16T16:22:39;16.30;99.90
57434;DHT22;43277;52.672;6.984;2022-10-16T16:25:05;16.20;99.90
57434;DHT22;43277;52.672;6.984;2022-10-16T16:27:31;15.90;99.90
57434;DHT22;43277;52.672;6.984;2022-10-16T16:29:59;15.80;99.90
57434;DHT22;43277;52.672;6.984;2022-10-16T16:32:25;15.70;99.90
57434;DHT22;43277;52.672;6.984;2022-10-16T16:34:50;15.50;99.90
57434;DHT22;43277;52.672;6.984;2022-10-16T16:37:16;15.40;99.90
57434;DHT22;43277;52.672;6.984;2022-10-16T16:39:42;15.30;99.90
57434;DHT22;43277;52.672;6.984;2022-10-16T16:42:07;15.20;99.90
57434;DHT22;43277;52.672;6.984;2022-10-16T16:44:33;15.10;99.90
57434;DHT22;43277;52.672;6.984;2022-10-16T16:47:02;15.10;99.90
57434;DHT22;43277;52.672;6.984;2022-10-16T16:49:28;15.00;99.90
57434;DHT22;43277;52.672;6.984;2022-10-16T16:51:54;14.90;99.90
57434;DHT22;43277;52.672;6.984;2022-10-16T16:54:19;14.80;99.90
57434;DHT22;43277;52.672;6.984;2022-10-16T16:56:45;14.70;99.90
57434;DHT22;43277;52.672;6.984;2022-10-16T16:59:16;14.70;99.90
57434;DHT22;43277;52.672;6.984;2022-10-16T17:01:43;14.60;99.90
57434;DHT22;43277;52.672;6.984;2022-10-16T17:04:09;14.50;99.90
57434;DHT22;43277;52.672;6.984;2022-10-16T17:06:36;14.50;99.90
57434;DHT22;43277;52.672;6.984;2022-10-16T17:09:03;14.40;99.90
57434;DHT22;43277;52.672;6.984;2022-10-16T17:11:30;14.20;99.90
57434;DHT22;43277;52.672;6.984;2022-10-16T17:13:57;14.20;99.90
57434;DHT22;43277;52.672;6.984;2022-10-16T17:16:34;14.10;99.90
57434;DHT22;43277;52.672;6.984;2022-10-16T17:19:02;14.10;99.90
57434;DHT22;43277;52.672;6.984;2022-10-16T17:21:28;14.00;99.90
57434;DHT22;43277;52.672;6.984;2022-10-16T17:23:56;14.00;99.90
57434;DHT22;43277;52.672;6.984;2022-10-16T17:26:22;13.90;99.90
57434;DHT22;43277;52.672;6.984;2022-10-16T17:28:51;13.70;99.90
57434;DHT22;43277;52.672;6.984;2022-10-16T17:31:20;13.80;99.90
57434;DHT22;43277;52.672;6.984;2022-10-16T17:33:46;13.80;99.90
57434;DHT22;43277;52.672;6.984;2022-10-16T17:36:13;13.60;99.90
57434;DHT22;43277;52.672;6.984;2022-10-16T17:38:41;13.60;99.90
57434;DHT22;43277;52.672;6.984;2022-10-16T17:41:21;13.50;99.90
57434;DHT22;43277;52.672;6.984;2022-10-16T17:43:47;13.40;99.90